Time;durP1;ratioP1;P1;durP2;ratioP2;P2;SDS_P1;SDS_P2;PMS_P1;PMS_P2;Temp;Humidity;BMP_temperature;BMP_pressure;BME280_temperature;BME280_humidity;BME280_pressure;Samples;Min_cycle;Max_cycle;Signal;HPM_P1;HPM_P2
2023/12/01 01:24:30;;;;;;;1999.90;999.90;;;;;;;6.63;63.68;100382.31;10267797;28;20047;-70
2023/12/01 01:29:33;;;;;;;1999.90;999.90;;;;;;;6.74;65.44;100382.66;10294161;28;20042;-70
2023/12/01 01:34:35;;;;;;;1999.90;999.90;;;;;;;6.81;65.71;100373.63;10293148;28;20062;-70
2023/12/01 01:39:38;;;;;;;1999.90;999.90;;;;;;;6.72;65.15;100376.66;10294218;28;20070;-70
2023/12/01 01:44:40;;;;;;;1999.90;999.90;;;;;;;6.96;64.99;100394.59;10293771;28;20502;-70
2023/12/01 01:49:43;;;;;;;1999.90;999.90;;;;;;;6.09;66.01;100387.41;10293890;28;20055;-70
2023/12/01 01:54:46;;;;;;;1999.90;999.90;;;;;;;6.54;65.44;100391.41;10293765;28;20050;-70
2023/12/01 01:59:48;;;;;;;1999.90;999.90;;;;;;;6.24;65.44;100391.91;10292447;28;20047;-70
2023/12/01 02:04:53;;;;;;;1999.90;999.90;;;;;;;7.24;64.40;100383.66;10276165;28;20058;-70
2023/12/01 02:09:56;;;;;;;1999.90;999.90;;;;;;;7.37;64.34;100392.56;10302715;28;20062;-70
2023/12/01 02:14:58;;;;;;;1999.90;999.90;;;;;;;7.06;65.14;100396.69;10291965;28;20483;-71
2023/12/01 02:20:00;;;;;;;1999.90;999.90;;;;;;;7.05;64.89;100400.22;10294481;28;20051;-71
2023/12/01 02:25:03;;;;;;;1999.90;999.90;;;;;;;7.02;64.10;100397.75;10387258;23;20137;-64
2023/12/01 02:30:06;;;;;;;1999.90;999.90;;;;;;;7.22;62.84;100395.94;10380901;28;20100;-64
2023/12/01 02:35:09;;;;;;;1999.90;999.90;;;;;;;7.47;63.42;100395.53;10380706;28;20054;-64
2023/12/01 02:40:16;;;;;;;1999.90;999.90;;;;;;;7.17;64.39;100387.50;10396652;28;20046;-64
2023/12/01 02:45:20;;;;;;;1999.90;999.90;;;;;;;6.72;65.52;100389.66;10381678;28;20054;-64
2023/12/01 02:50:23;;;;;;;1999.90;999.90;;;;;;;7.25;62.88;100393.19;10381066;28;20397;-64
2023/12/01 02:55:26;;;;;;;1999.90;999.90;;;;;;;7.26;62.34;100389.63;10381180;28;20046;-64
2023/12/01 03:00:29;;;;;;;1999.90;999.90;;;;;;;7.25;65.15;100390.56;10379623;28;20046;-64
2023/12/01 03:05:31;;;;;;;1999.90;999.90;;;;;;;7.57;62.13;100393.31;10380730;28;20054;-64
2023/12/01 03:10:34;;;;;;;1999.90;999.90;;;;;;;7.25;64.14;100391.41;10380439;28;20041;-64
2023/12/01 03:15:37;;;;;;;1999.90;999.90;;;;;;;7.09;64.08;100387.03;10378990;28;20493;-64
2023/12/01 03:20:39;;;;;;;1999.90;999.90;;;;;;;6.65;64.50;100391.72;10379783;28;20190;-64
2023/12/01 03:25:42;;;;;;;1999.90;999.90;;;;;;;6.73;63.70;100385.31;10379633;28;20054;-64
2023/12/01 03:30:44;;;;;;;1999.90;999.90;;;;;;;6.85;64.36;100392.53;10379403;28;20052;-64
2023/12/01 03:35:47;;;;;;;1999.90;999.90;;;;;;;6.98;63.46;100398.81;10379403;28;20054;-64
2023/12/01 03:40:49;;;;;;;1999.90;999.90;;;;;;;6.15;65.31;100410.50;10379398;28;20052;-64
2023/12/01 03:45:51;;;;;;;1999.90;999.90;;;;;;;6.96;64.77;100410.22;10379004;28;20057;-64
2023/12/01 03:50:54;;;;;;;1999.90;999.90;;;;;;;7.43;61.99;100407.03;10378871;28;20066;-64
2023/12/01 03:55:57;;;;;;;1999.90;999.90;;;;;;;7.67;61.14;100412.75;10377613;28;20060;-65
2023/12/01 04:00:59;;;;;;;1999.90;999.90;;;;;;;7.51;60.91;100411.84;10377276;28;20100;-64
2023/12/01 04:06:01;;;;;;;1999.90;999.90;;;;;;;6.97;62.52;100417.13;10378415;28;20100;-66
2023/12/01 04:11:06;;;;;;;1999.90;999.90;;;;;;;7.81;61.11;100418.09;10377266;28;20045;-66
2023/12/01 04:16:08;;;;;;;1999.90;999.90;;;;;;;6.97;61.67;100417.13;10361240;28;20060;-66
2023/12/01 04:21:11;;;;;;;1999.90;999.90;;;;;;;7.00;62.26;100427.38;10376528;28;20095;-64
2023/12/01 04:26:13;;;;;;;1999.90;999.90;;;;;;;6.16;64.25;100426.97;10392647;28;20049;-64
2023/12/01 04:31:16;;;;;;;1999.90;999.90;;;;;;;7.22;63.61;100432.38;10377450;28;20129;-64
2023/12/01 04:36:18;;;;;;;1999.90;999.90;;;;;;;7.59;61.90;100427.94;10377044;28;20046;-64
2023/12/01 04:41:21;;;;;;;1999.90;999.90;;;;;;;7.42;61.17;100428.78;10375981;28;20042;-64
2023/12/01 04:46:23;;;;;;;1999.90;999.90;;;;;;;7.68;62.38;100439.66;10374842;28;20504;-64
2023/12/01 04:51:26;;;;;;;1999.90;999.90;;;;;;;8.03;61.61;100445.66;10376375;28;20046;-65
2023/12/01 04:56:28;;;;;;;1999.90;999.90;;;;;;;7.74;61.65;100442.78;10376335;28;20054;-64
2023/12/01 05:01:35;;;;;;;1999.90;999.90;;;;;;;8.06;61.15;100449.88;10376031;28;20053;-64
2023/12/01 05:06:38;;;;;;;1999.90;999.90;;;;;;;6.94;62.62;100453.69;10376210;28;20050;-64
2023/12/01 05:11:40;;;;;;;1999.90;999.90;;;;;;;7.18;63.72;100477.72;10375833;28;20088;-64
2023/12/01 05:16:42;;;;;;;1999.90;999.90;;;;;;;7.70;62.01;100474.28;10375798;28;20053;-64
2023/12/01 05:21:45;;;;;;;1999.90;999.90;;;;;;;7.91;61.05;100474.97;10375386;28;20129;-64
2023/12/01 05:26:47;;;;;;;1999.90;999.90;;;;;;;7.96;61.24;100476.41;10375221;28;20133;-64
2023/12/01 05:31:51;;;;;;;1999.90;999.90;;;;;;;7.59;61.31;100480.06;10373985;28;20057;-64
2023/12/01 05:36:53;;;;;;;1999.90;999.90;;;;;;;7.78;61.01;100486.03;10374961;28;20479;-64
2023/12/01 05:41:55;;;;;;;1999.90;999.90;;;;;;;7.90;60.26;100495.00;10373626;28;20485;-64
2023/12/01 05:46:59;;;;;;;1999.90;999.90;;;;;;;7.51;61.45;100485.63;10374792;28;20052;-64
2023/12/01 05:52:01;;;;;;;1999.90;999.90;;;;;;;7.80;62.00;100491.13;10374348;28;20057;-64
2023/12/01 05:57:06;;;;;;;1999.90;999.90;;;;;;;7.36;62.20;100497.66;10374933;28;20050;-64
2023/12/01 06:02:11;;;;;;;1999.90;999.90;;;;;;;6.80;63.19;100514.22;10374324;28;20053;-64
2023/12/01 06:07:13;;;;;;;1999.90;999.90;;;;;;;7.17;62.64;100507.28;10373252;28;20485;-64
2023/12/01 06:12:16;;;;;;;1999.90;999.90;;;;;;;7.36;62.34;100518.50;10374091;28;20054;-64
2023/12/01 06:17:18;;;;;;;1999.90;999.90;;;;;;;7.35;61.43;100516.81;10374327;28;20053;-64
2023/12/01 06:22:21;;;;;;;1999.90;999.90;;;;;;;7.72;61.45;100519.38;10374041;28;20069;-64
2023/12/01 06:27:23;;;;;;;1999.90;999.90;;;;;;;6.97;61.79;100527.28;10373882;28;20053;-64
2023/12/01 06:32:25;;;;;;;1999.90;999.90;;;;;;;7.46;61.67;100525.88;10373870;28;20069;-64
2023/12/01 06:37:28;;;;;;;1999.90;999.90;;;;;;;6.43;63.14;100537.53;10374155;28;20104;-64
2023/12/01 06:42:30;;;;;;;1999.90;999.90;;;;;;;7.36;61.40;100528.94;10372814;28;20058;-64
2023/12/01 06:47:33;;;;;;;1999.90;999.90;;;;;;;7.72;60.77;100540.22;10374051;28;20053;-64
2023/12/01 06:52:36;;;;;;;1999.90;999.90;;;;;;;7.61;60.47;100546.78;10373378;28;20137;-64
2023/12/01 06:57:43;;;;;;;1999.90;999.90;;;;;;;7.35;61.73;100548.06;10372126;28;20413;-64
2023/12/01 07:02:46;;;;;;;1999.90;999.90;;;;;;;7.11;61.23;100552.69;10372453;28;20108;-64
2023/12/01 07:07:48;;;;;;;1999.90;999.90;;;;;;;7.19;61.44;100558.34;10359580;28;20054;-64
2023/12/01 07:12:54;;;;;;;1999.90;999.90;;;;;;;7.59;60.34;100566.88;10379043;28;20557;-64
2023/12/01 07:18:01;;;;;;;1999.90;999.90;;;;;;;7.68;60.25;100565.56;10379228;28;20050;-64
2023/12/01 07:23:05;;;;;;;1999.90;999.90;;;;;;;7.71;60.20;100567.19;10378682;28;20409;-64
2023/12/01 07:28:11;;;;;;;1999.90;999.90;;;;;;;8.00;58.94;100569.22;10379893;28;20081;-64
2023/12/01 07:33:14;;;;;;;1999.90;999.90;;;;;;;7.87;59.59;100586.38;10378413;28;20074;-64
2023/12/01 07:38:17;;;;;;;1999.90;999.90;;;;;;;7.29;61.60;100590.00;10379250;28;20050;-64
2023/12/01 07:43:21;;;;;;;1999.90;999.90;;;;;;;7.31;61.94;100590.78;10379628;28;20049;-64
2023/12/01 07:48:24;;;;;;;1999.90;999.90;;;;;;;7.34;61.63;100588.03;10379108;28;20468;-64
2023/12/01 07:53:26;;;;;;;1999.90;999.90;;;;;;;6.91;62.52;100591.78;10378898;28;20046;-64
2023/12/01 07:58:28;;;;;;;1999.90;999.90;;;;;;;7.29;61.82;100597.00;10378616;28;20061;-64
2023/12/01 08:03:31;;;;;;;1999.90;999.90;;;;;;;6.74;62.81;100597.75;10378266;28;20046;-64
2023/12/01 08:08:33;;;;;;;1999.90;999.90;;;;;;;7.47;61.19;100597.91;10378342;28;20129;-64
2023/12/01 08:13:41;;;;;;;1999.90;999.90;;;;;;;6.75;62.50;100602.06;10377887;28;20452;-64
2023/12/01 08:18:44;;;;;;;1999.90;999.90;;;;;;;7.04;62.32;100606.78;10376840;28;20050;-64
2023/12/01 08:23:49;;;;;;;1999.90;999.90;;;;;;;7.33;61.36;100601.13;10377368;28;20080;-64
2023/12/01 08:28:54;;;;;;;1999.90;999.90;;;;;;;6.96;61.91;100613.25;10377742;28;20107;-64
2023/12/01 08:33:56;;;;;;;1999.90;999.90;;;;;;;6.69;62.95;100616.16;10376123;28;20050;-64
2023/12/01 08:38:59;;;;;;;1999.90;999.90;;;;;;;7.04;62.37;100619.81;10377229;28;20057;-64
2023/12/01 08:44:01;;;;;;;1999.90;999.90;;;;;;;7.21;61.02;100616.44;10376926;28;20046;-64
2023/12/01 08:49:04;;;;;;;1999.90;999.90;;;;;;;6.17;63.87;100632.25;10391917;28;20056;-64
2023/12/01 08:54:06;;;;;;;1999.90;999.90;;;;;;;6.27;62.97;100643.09;10375374;28;20042;-67
2023/12/01 08:59:09;;;;;;;1999.90;999.90;;;;;;;6.36;62.77;100637.53;10376147;28;20076;-67
2023/12/01 09:04:11;;;;;;;1999.90;999.90;;;;;;;6.07;62.74;100654.31;10376292;28;20057;-66
2023/12/01 09:09:14;;;;;;;1999.90;999.90;;;;;;;6.47;61.27;100647.47;10374601;28;20489;-66
2023/12/01 09:14:16;;;;;;;1999.90;999.90;;;;;;;6.71;60.63;100648.19;10375703;28;20050;-67
2023/12/01 09:19:19;;;;;;;1999.90;999.90;;;;;;;6.31;61.56;100652.47;10376175;28;20096;-66
2023/12/01 09:24:21;;;;;;;1999.90;999.90;;;;;;;6.85;60.92;100653.59;10375374;28;20058;-66
2023/12/01 09:29:24;;;;;;;1999.90;999.90;;;;;;;7.17;60.14;100653.91;10375038;28;20124;-66
2023/12/01 09:34:27;;;;;;;1999.90;999.90;;;;;;;6.92;60.46;100662.00;10374948;28;20157;-64
2023/12/01 09:39:29;;;;;;;1999.90;999.90;;;;;;;7.38;60.01;100664.25;10375384;28;20114;-64
2023/12/01 09:44:33;;;;;;;1999.90;999.90;;;;;;;6.29;62.86;100675.94;10375064;28;20108;-64
2023/12/01 09:49:36;;;;;;;1999.90;999.90;;;;;;;6.40;62.95;100685.88;10357184;28;20079;-64
2023/12/01 09:54:38;;;;;;;1999.90;999.90;;;;;;;5.93;63.80;100692.09;10373553;28;20061;-63
2023/12/01 09:59:40;;;;;;;1999.90;999.90;;;;;;;6.03;62.18;100695.19;10374410;28;20050;-64
2023/12/01 10:04:45;;;;;;;1999.90;999.90;;;;;;;6.46;62.52;100690.84;10374424;28;20108;-64
2023/12/01 10:09:47;;;;;;;1999.90;999.90;;;;;;;6.27;62.04;100701.16;10374278;28;20489;-64
2023/12/01 10:14:50;;;;;;;1999.90;999.90;;;;;;;6.08;62.43;100701.03;10374318;28;20133;-64
2023/12/01 10:19:52;;;;;;;1999.90;999.90;;;;;;;6.41;60.64;100689.34;10374171;28;20080;-64
2023/12/01 10:25:03;;;;;;;1999.90;999.90;;;;;;;6.58;60.44;100691.25;10373822;28;20123;-64
2023/12/01 10:30:14;;;;;;;1999.90;999.90;;;;;;;7.10;59.57;100688.13;10373765;28;20077;-63
2023/12/01 10:35:17;;;;;;;1999.90;999.90;;;;;;;6.55;60.61;100696.56;10373768;28;20397;-63
2023/12/01 10:40:20;;;;;;;1999.90;999.90;;;;;;;6.61;60.64;100694.56;10373982;28;20054;-64
2023/12/01 10:45:23;;;;;;;1999.90;999.90;;;;;;;6.79;60.56;100685.13;10381963;28;20058;-64
2023/12/01 10:50:25;;;;;;;1999.90;999.90;;;;;;;6.86;60.28;100681.34;10381416;28;20100;-64
2023/12/01 10:55:28;;;;;;;1999.90;999.90;;;;;;;6.90;60.29;100676.84;10381221;28;20128;-64
2023/12/01 11:00:31;;;;;;;1999.90;999.90;;;;;;;6.69;59.53;100681.19;10379787;28;20081;-64
2023/12/01 11:05:34;;;;;;;1999.90;999.90;;;;;;;7.16;59.47;100673.09;10379940;28;20081;-64
2023/12/01 11:10:50;;;;;;;1999.90;999.90;;;;;;;7.40;59.50;100663.28;10380321;28;20108;-64
2023/12/01 11:15:53;;;;;;;1999.90;999.90;;;;;;;7.11;59.78;100663.78;10380490;28;20056;-64
2023/12/01 11:20:56;;;;;;;1999.90;999.90;;;;;;;6.99;60.51;100660.81;10378985;28;20046;-64
2023/12/01 11:26:06;;;;;;;1999.90;999.90;;;;;;;7.01;60.36;100672.00;10379745;28;20141;-64
2023/12/01 11:31:33;;;;;;;1999.90;999.90;;;;;;;6.88;61.26;100666.47;10378701;28;20077;-64
2023/12/01 11:36:36;;;;;;;1999.90;999.90;;;;;;;6.88;61.08;100671.69;10378728;28;20060;-64
2023/12/01 11:41:49;;;;;;;1999.90;999.90;;;;;;;7.15;60.89;100681.78;10379290;28;20050;-64
2023/12/01 11:46:55;;;;;;;1999.90;999.90;;;;;;;6.77;61.31;100675.69;10378053;28;20053;-63
2023/12/01 11:52:03;;;;;;;1999.90;999.90;;;;;;;7.15;61.00;100681.78;10378759;28;20054;-64
2023/12/01 11:57:08;;;;;;;1999.90;999.90;;;;;;;6.93;60.29;100681.06;10377504;28;20219;-63
2023/12/01 12:02:10;;;;;;;1999.90;999.90;;;;;;;7.01;59.95;100690.22;10377497;28;20046;-64
2023/12/01 12:07:13;;;;;;;1999.90;999.90;;;;;;;6.50;59.08;100691.56;10377558;28;20054;-64
2023/12/01 12:12:18;;;;;;;1999.90;999.90;;;;;;;6.14;60.00;100698.22;10378233;28;20133;-63
2023/12/01 12:17:22;;;;;;;1999.90;999.90;;;;;;;6.25;58.87;100697.75;10377999;28;20080;-64
2023/12/01 12:22:26;;;;;;;1999.90;999.90;;;;;;;7.25;58.23;100693.47;10376599;28;20065;-64
2023/12/01 12:27:38;;;;;;;1999.90;999.90;;;;;;;6.83;59.97;100698.84;10376313;28;20084;-64
2023/12/01 12:32:41;;;;;;;1999.90;999.90;;;;;;;6.19;58.58;100703.22;10376350;28;20046;-64
2023/12/01 12:37:47;;;;;;;1999.90;999.90;;;;;;;6.42;60.91;100701.44;10392067;28;20116;-63
2023/12/01 12:42:56;;;;;;;1999.90;999.90;;;;;;;7.24;59.14;100701.38;10376824;28;20056;-64
2023/12/01 12:48:09;;;;;;;1999.90;999.90;;;;;;;7.57;59.00;100706.78;10376964;28;20045;-64
2023/12/01 12:53:12;;;;;;;1999.90;999.90;;;;;;;6.93;59.45;100707.94;10375306;28;20046;-64
2023/12/01 12:58:14;;;;;;;1999.90;999.90;;;;;;;6.78;59.17;100699.03;10376551;28;20057;-64
2023/12/01 13:03:17;;;;;;;1999.90;999.90;;;;;;;7.17;59.73;100702.56;10375723;28;20050;-64
2023/12/01 13:08:20;;;;;;;1999.90;999.90;;;;;;;6.69;60.13;100710.69;10376003;28;20182;-64
2023/12/01 13:13:22;;;;;;;1999.90;999.90;;;;;;;6.70;58.99;100717.56;10375769;28;20096;-64
2023/12/01 13:18:25;;;;;;;1999.90;999.90;;;;;;;6.63;59.75;100717.91;10375661;28;20481;-63
2023/12/01 13:23:28;;;;;;;1999.90;999.90;;;;;;;6.62;58.63;100718.81;10374519;28;20416;-64
2023/12/01 13:28:31;;;;;;;1999.90;999.90;;;;;;;6.18;60.54;100727.53;10375264;28;20136;-64
2023/12/01 13:33:33;;;;;;;1999.90;999.90;;;;;;;6.96;56.90;100712.16;10375288;28;20073;-64
2023/12/01 13:38:37;;;;;;;1999.90;999.90;;;;;;;6.33;59.43;100703.50;10375040;28;20064;-65
2023/12/01 13:43:39;;;;;;;1999.90;999.90;;;;;;;6.46;59.72;100705.59;10374934;28;20132;-65
2023/12/01 13:48:41;;;;;;;1999.90;999.90;;;;;;;6.77;57.73;100699.94;10375190;28;20512;-65
2023/12/01 13:53:44;;;;;;;1999.90;999.90;;;;;;;5.97;57.94;100703.25;10374432;28;20051;-65
2023/12/01 13:58:46;;;;;;;1999.90;999.90;;;;;;;6.72;56.83;100691.47;10374591;28;20052;-64
2023/12/01 14:03:51;;;;;;;1999.90;999.90;;;;;;;6.82;58.42;100708.38;10374391;28;20042;-64
2023/12/01 14:08:53;;;;;;;1999.90;999.90;;;;;;;6.49;57.85;100702.88;10374362;28;20074;-63
2023/12/01 14:13:56;;;;;;;1999.90;999.90;;;;;;;6.38;58.94;100712.88;10374096;28;20050;-64
2023/12/01 14:18:58;;;;;;;1999.90;999.90;;;;;;;6.28;57.81;100710.63;10380575;28;20056;-64
2023/12/01 14:24:01;;;;;;;1999.90;999.90;;;;;;;6.43;58.12;100721.34;10381216;28;20058;-64
2023/12/01 14:29:06;;;;;;;1999.90;999.90;;;;;;;5.89;58.23;100718.25;10382130;28;20493;-64
2023/12/01 14:34:08;;;;;;;1999.90;999.90;;;;;;;6.32;58.33;100722.63;10382119;28;20046;-64
2023/12/01 14:39:11;;;;;;;1999.90;999.90;;;;;;;6.07;58.16;100722.75;10425564;22;20057;-73
2023/12/01 14:44:15;;;;;;;1999.90;999.90;;;;;;;5.97;59.26;100728.38;10423179;28;20080;-73
2023/12/01 14:49:18;;;;;;;1999.90;999.90;;;;;;;6.07;58.46;100733.16;10404764;28;20046;-73
2023/12/01 14:54:20;;;;;;;1999.90;999.90;;;;;;;5.99;59.12;100736.97;10422191;28;20049;-73
2023/12/01 14:59:23;;;;;;;1999.90;999.90;;;;;;;5.85;59.93;100743.53;10422268;28;20045;-73
2023/12/01 15:04:26;;;;;;;1999.90;999.90;;;;;;;5.91;59.11;100750.22;10421752;28;20045;-73
2023/12/01 15:09:28;;;;;;;1999.90;999.90;;;;;;;5.45;59.47;100746.78;10404046;28;20492;-73
2023/12/01 15:14:31;;;;;;;1999.90;999.90;;;;;;;5.46;59.86;100751.06;10421186;28;20060;-73
2023/12/01 15:19:33;;;;;;;1999.90;999.90;;;;;;;5.39;60.06;100756.47;10403589;28;20510;-73
2023/12/01 15:24:35;;;;;;;1999.90;999.90;;;;;;;5.32;58.54;100759.34;10403457;28;20071;-73
2023/12/01 15:29:39;;;;;;;1999.90;999.90;;;;;;;5.90;58.07;100767.59;10420214;28;20049;-73
2023/12/01 15:34:41;;;;;;;1999.90;999.90;;;;;;;5.13;58.50;100767.78;10420680;28;20056;-73
2023/12/01 15:39:44;;;;;;;1999.90;999.90;;;;;;;5.65;58.68;100775.44;10420566;28;20141;-73
2023/12/01 15:44:49;;;;;;;1999.90;999.90;;;;;;;5.93;59.62;100774.41;10420759;28;20045;-73
2023/12/01 15:49:52;;;;;;;1999.90;999.90;;;;;;;5.81;58.46;100777.47;10420104;28;20100;-73
2023/12/01 15:54:54;;;;;;;1999.90;999.90;;;;;;;5.81;59.04;100775.72;10419945;28;20047;-73
2023/12/01 15:59:56;;;;;;;1999.90;999.90;;;;;;;5.50;59.43;100782.06;10419669;28;20050;-73
2023/12/01 16:05:02;;;;;;;1999.90;999.90;;;;;;;6.04;58.56;100777.47;10402433;28;20053;-73
2023/12/01 16:10:05;;;;;;;1999.90;999.90;;;;;;;5.92;59.73;100791.75;10419389;28;20140;-73
2023/12/01 16:15:09;;;;;;;1999.90;999.90;;;;;;;5.28;60.99;100779.38;10419039;28;20042;-73
2023/12/01 16:20:19;;;;;;;;;;;;;;;6.03;58.32;100785.31;10419417;28;20061;-73
2023/12/01 16:25:21;;;;;;;1999.90;999.90;;;;;;;5.66;59.48;100786.69;10419039;28;19927;-73
2023/12/01 16:30:24;;;;;;;1999.90;999.90;;;;;;;5.81;58.73;100791.28;10418579;28;20128;-73
2023/12/01 16:35:26;;;;;;;1999.90;999.90;;;;;;;5.70;58.73;100790.84;10418419;28;20057;-73
2023/12/01 16:40:29;;;;;;;1999.90;999.90;;;;;;;6.14;58.77;100790.97;10399863;28;20393;-73
2023/12/01 16:45:31;;;;;;;1999.90;999.90;;;;;;;5.67;59.20;100791.81;10418216;28;20133;-73
2023/12/01 16:50:34;;;;;;;1999.90;999.90;;;;;;;5.44;60.14;100802.19;10417612;28;20053;-73
2023/12/01 16:55:38;;;;;;;1999.90;999.90;;;;;;;5.64;59.41;100804.91;10400432;28;20081;-73
2023/12/01 17:00:41;;;;;;;1999.90;999.90;;;;;;;5.69;59.12;100799.56;10417405;28;20045;-73
2023/12/01 17:05:43;;;;;;;1999.90;999.90;;;;;;;5.38;58.99;100813.66;10399957;28;20147;-73
2023/12/01 17:10:45;;;;;;;1999.90;999.90;;;;;;;5.18;61.18;100822.16;10416677;28;20045;-73
2023/12/01 17:15:48;;;;;;;1999.90;999.90;;;;;;;5.20;59.43;100818.59;10416536;28;20483;-73
2023/12/01 17:20:50;;;;;;;1999.90;999.90;;;;;;;5.84;58.55;100817.16;10399464;28;20053;-73
2023/12/01 17:25:53;;;;;;;1999.90;999.90;;;;;;;5.35;59.65;100819.81;10398914;28;20053;-73
2023/12/01 17:30:55;;;;;;;1999.90;999.90;;;;;;;5.52;59.88;100819.19;10398634;28;20132;-72
2023/12/01 17:35:58;;;;;;;1999.90;999.90;;;;;;;5.64;59.39;100825.69;10415767;28;20488;-72
2023/12/01 17:41:02;;;;;;;1999.90;999.90;;;;;;;5.34;59.03;100822.44;10416002;28;20139;-72
2023/12/01 17:46:04;;;;;;;1999.90;999.90;;;;;;;4.96;58.42;100814.22;10415460;28;20565;-73
2023/12/01 17:51:07;;;;;;;1999.90;999.90;;;;;;;5.37;59.32;100811.97;10415361;28;20053;-73
2023/12/01 17:56:10;;;;;;;1999.90;999.90;;;;;;;5.18;59.58;100814.38;10416174;28;20053;-73
2023/12/01 18:01:12;;;;;;;1999.90;999.90;;;;;;;4.38;60.05;100819.56;10415759;28;20045;-73
2023/12/01 18:06:15;;;;;;;1999.90;999.90;;;;;;;5.10;59.74;100831.94;10415478;28;20128;-73
2023/12/01 18:11:17;;;;;;;1999.90;999.90;;;;;;;5.29;58.00;100832.16;10397496;28;20148;-73
2023/12/01 18:16:20;;;;;;;1999.90;999.90;;;;;;;5.30;59.47;100824.31;10415147;28;20507;-73
2023/12/01 18:21:23;;;;;;;1999.90;999.90;;;;;;;5.50;59.14;100834.00;10397575;28;20050;-73
2023/12/01 18:26:26;;;;;;;1999.90;999.90;;;;;;;5.27;58.94;100833.97;10415146;28;20100;-73
2023/12/01 18:31:28;;;;;;;1999.90;999.90;;;;;;;5.48;58.49;100837.53;10397625;28;20049;-73
2023/12/01 18:36:31;;;;;;;1999.90;999.90;;;;;;;5.57;59.03;100830.25;10414499;28;20084;-73
2023/12/01 18:41:33;;;;;;;1999.90;999.90;;;;;;;5.01;59.99;100830.50;10414552;28;20049;-73
2023/12/01 18:46:36;;;;;;;1999.90;999.90;;;;;;;5.16;59.82;100840.38;10414538;28;20056;-72
2023/12/01 18:51:41;;;;;;;1999.90;999.90;;;;;;;5.28;59.41;100843.41;10414142;28;20400;-73
2023/12/01 18:56:43;;;;;;;1999.90;999.90;;;;;;;4.87;61.33;100843.91;10414526;28;20389;-73
2023/12/01 19:01:46;;;;;;;1999.90;999.90;;;;;;;4.88;60.71;100853.41;10415595;28;20120;-73
2023/12/01 19:06:49;;;;;;;1999.90;999.90;;;;;;;4.90;60.92;100862.00;10404466;28;20051;-73
2023/12/01 19:11:51;;;;;;;1999.90;999.90;;;;;;;5.28;59.24;100865.06;10421364;28;20080;-73
2023/12/01 19:16:54;;;;;;;1999.90;999.90;;;;;;;4.96;60.03;100868.72;10421302;28;20058;-73
2023/12/01 19:21:56;;;;;;;1999.90;999.90;;;;;;;4.78;60.37;100872.78;10421514;28;20481;-72
2023/12/01 19:26:59;;;;;;;1999.90;999.90;;;;;;;4.94;59.29;100865.31;10420963;28;20400;-73
2023/12/01 19:32:01;;;;;;;1999.90;999.90;;;;;;;4.09;59.97;100852.41;10387103;28;20060;-72
2023/12/01 19:37:04;;;;;;;1999.90;999.90;;;;;;;5.13;59.37;100855.19;10420722;28;20057;-72
2023/12/01 19:42:06;;;;;;;1999.90;999.90;;;;;;;4.79;59.60;100875.31;10420617;28;20046;-72
2023/12/01 19:47:12;;;;;;;1999.90;999.90;;;;;;;5.10;58.94;100868.28;10403056;28;20060;-73
2023/12/01 19:52:15;;;;;;;1999.90;999.90;;;;;;;4.81;59.25;100873.50;10420049;28;20128;-72
2023/12/01 19:57:17;;;;;;;1999.90;999.90;;;;;;;4.56;60.05;100870.00;10420253;28;20046;-73
2023/12/01 20:02:20;;;;;;;1999.90;999.90;;;;;;;4.02;60.16;100869.03;10419970;28;20132;-73
2023/12/01 20:07:22;;;;;;;1999.90;999.90;;;;;;;4.25;60.38;100858.84;10385999;28;20365;-73
2023/12/01 20:12:25;;;;;;;1999.90;999.90;;;;;;;4.57;60.98;100889.84;10419184;28;20049;-73
2023/12/01 20:17:27;;;;;;;1999.90;999.90;;;;;;;4.28;61.33;100895.00;10401441;28;20087;-73
2023/12/01 20:22:29;;;;;;;1999.90;999.90;;;;;;;5.17;59.29;100895.72;10419204;28;20128;-73
2023/12/01 20:27:32;;;;;;;1999.90;999.90;;;;;;;5.11;58.41;100899.38;10418521;28;20498;-73
2023/12/01 20:32:35;;;;;;;1999.90;999.90;;;;;;;4.95;59.95;100899.00;10418619;28;20136;-73
2023/12/01 20:37:37;;;;;;;1999.90;999.90;;;;;;;4.42;59.44;100898.94;10400603;28;20057;-73
2023/12/01 20:42:40;;;;;;;1999.90;999.90;;;;;;;4.93;59.39;100903.41;10418660;28;20050;-73
2023/12/01 20:47:42;;;;;;;1999.90;999.90;;;;;;;4.73;59.86;100885.03;10400427;28;20115;-73
2023/12/01 20:52:47;;;;;;;1999.90;999.90;;;;;;;3.54;61.90;100896.25;10418027;28;20073;-73
2023/12/01 20:57:52;;;;;;;1999.90;999.90;;;;;;;4.88;60.19;100897.53;10400578;28;20103;-73
2023/12/01 21:02:54;;;;;;;1999.90;999.90;;;;;;;4.60;61.25;100900.97;10400014;28;20521;-73
2023/12/01 21:07:56;;;;;;;1999.90;999.90;;;;;;;4.93;58.90;100895.63;10417178;28;20053;-73
2023/12/01 21:12:59;;;;;;;1999.90;999.90;;;;;;;5.34;59.18;100900.34;10399183;28;20487;-74
2023/12/01 21:18:01;;;;;;;1999.90;999.90;;;;;;;3.59;60.85;100912.50;10416785;28;20053;-73
2023/12/01 21:23:04;;;;;;;1999.90;999.90;;;;;;;4.38;60.39;100918.09;10416530;28;20041;-74
2023/12/01 21:28:06;;;;;;;1999.90;999.90;;;;;;;5.03;59.54;100911.75;10415976;28;20052;-74
2023/12/01 21:33:08;;;;;;;1999.90;999.90;;;;;;;5.30;59.69;100912.56;10382179;28;20456;-73
2023/12/01 21:38:11;;;;;;;1999.90;999.90;;;;;;;5.25;58.59;100911.03;10415702;28;20061;-73
2023/12/01 21:43:13;;;;;;;1999.90;999.90;;;;;;;4.12;60.48;100905.88;10398730;28;20052;-73
2023/12/01 21:48:16;;;;;;;1999.90;999.90;;;;;;;5.04;59.95;100897.84;10416095;28;20073;-74
2023/12/01 21:53:19;;;;;;;1999.90;999.90;;;;;;;4.62;59.12;100887.94;10398251;28;20129;-74
2023/12/01 21:58:21;;;;;;;1999.90;999.90;;;;;;;4.74;59.03;100886.72;10415567;28;20381;-74
2023/12/01 22:03:23;;;;;;;1999.90;999.90;;;;;;;5.35;58.99;100884.72;10397666;28;20053;-74
2023/12/01 22:08:26;;;;;;;1999.90;999.90;;;;;;;5.40;57.15;100881.97;10398063;28;20140;-74
2023/12/01 22:13:28;;;;;;;1999.90;999.90;;;;;;;4.40;59.09;100887.78;10414856;28;20485;-74
2023/12/01 22:18:31;;;;;;;1999.90;999.90;;;;;;;4.73;59.93;100914.41;10415271;28;20056;-69
2023/12/01 22:23:33;;;;;;;1999.90;999.90;;;;;;;4.81;59.04;100924.56;10415053;28;20042;-69
2023/12/01 22:28:36;;;;;;;1999.90;999.90;;;;;;;4.98;57.75;100924.03;10397201;28;20053;-69
2023/12/01 22:33:38;;;;;;;1999.90;999.90;;;;;;;5.08;58.83;100934.94;10414938;28;20049;-69
2023/12/01 22:38:41;;;;;;;1999.90;999.90;;;;;;;5.17;58.18;100940.69;10418653;28;20065;-69
2023/12/01 22:43:43;;;;;;;1999.90;999.90;;;;;;;4.20;58.14;100930.69;10422494;28;20071;-69
2023/12/01 22:48:45;;;;;;;1999.90;999.90;;;;;;;5.19;58.18;100948.41;10405276;28;20084;-69
2023/12/01 22:53:48;;;;;;;1999.90;999.90;;;;;;;5.60;58.23;100951.41;10422125;28;20056;-69
2023/12/01 22:58:50;;;;;;;1999.90;999.90;;;;;;;5.31;58.60;100962.75;10404819;28;20424;-69
2023/12/01 23:03:52;;;;;;;1999.90;999.90;;;;;;;4.80;58.47;100952.22;10388095;28;20045;-69
2023/12/01 23:08:55;;;;;;;1999.90;999.90;;;;;;;5.57;57.90;100948.91;10404640;28;20053;-69
2023/12/01 23:13:58;;;;;;;1999.90;999.90;;;;;;;4.95;57.76;100940.53;10421476;28;20103;-69
2023/12/01 23:19:00;;;;;;;1999.90;999.90;;;;;;;5.54;57.27;100936.84;10421455;28;20128;-69
2023/12/01 23:24:03;;;;;;;1999.90;999.90;;;;;;;5.06;58.93;100963.56;10421023;28;20049;-70
2023/12/01 23:29:05;;;;;;;1999.90;999.90;;;;;;;4.35;60.15;100947.53;10420920;28;20049;-69
2023/12/01 23:34:09;;;;;;;1999.90;999.90;;;;;;;4.81;58.89;100951.34;10420735;28;20046;-69